Summit Station, Ohio
Current Conditions -  °F | °C
As of 11:51 PM on Monday 22 Dec 2014 (Local Time) from KCMH Reporting Station
Overcast Overcast  
Wind Chill: 41°   Ceiling: 9000
Heat Index: 46°   Visibility: 10mi
Dew Point: 37°   Wind: 10mph
Humidity: 71%   Direction: 120°ESE
Pressure: 29.79"   Gusts: NA
Location:  40°N, 82.75°W
Report Text: KCMH 230451Z 12009KT 10SM SCT080 BKN090 OVC120 08/03 A2979 RMK AO2 SLP091 T00780028 400891044
Loading
Personal Weather Stations






























Interactive Weather Map New forecast layout! Learn more

10-Day Weather Forecast

Advertisements
Track Severe Weather on mobile